Time;durP1;ratioP1;P1;durP2;ratioP2;P2;SDS_P1;SDS_P2;PMS_P1;PMS_P2;Temp;Humidity;BMP_temperature;BMP_pressure;BME280_temperature;BME280_humidity;BME280_pressure;Samples;Min_cycle;Max_cycle;Signal;HPM_P1;HPM_P2
2022/12/22 03:28:12;;;;;;;69.50;26.70;;;8.10;99.90;;;;;;6090922;23;20022;-85
2022/12/22 03:30:38;;;;;;;65.50;26.27;;;8.20;99.90;;;;;;6097671;23;20555;-85
2022/12/22 03:33:04;;;;;;;69.95;27.05;;;9.10;99.90;;;;;;6095350;23;20011;-85
2022/12/22 03:35:29;;;;;;;70.03;26.20;;;8.20;99.90;;;;;;6094833;23;20042;-84
2022/12/22 03:37:55;;;;;;;78.47;26.60;;;8.20;99.90;;;;;;6096399;23;20018;-84
2022/12/22 03:40:26;;;;;;;63.47;25.98;;;9.60;99.90;;;;;;6095170;23;20447;-85
2022/12/22 03:48:23;;;;;;;62.60;25.10;;;8.20;99.90;;;;;;6095216;23;20030;-85
2022/12/22 03:50:48;;;;;;;71.60;26.07;;;9.50;99.90;;;;;;6096741;23;20019;-84
2022/12/22 03:53:14;;;;;;;89.23;27.40;;;9.50;99.90;;;;;;6095262;23;20440;-85
2022/12/22 03:55:40;;;;;;;76.50;27.23;;;9.50;99.90;;;;;;6097775;23;20085;-84
2022/12/22 03:58:05;;;;;;;70.35;26.30;;;8.20;99.90;;;;;;6095276;23;20014;-85
2022/12/22 04:00:31;;;;;;;75.97;27.03;;;9.60;99.90;;;;;;6094042;23;20042;-85
2022/12/22 04:02:57;;;;;;;66.67;25.30;;;8.20;99.90;;;;;;6095373;23;20014;-85
2022/12/22 04:05:23;;;;;;;71.85;26.13;;;8.20;99.90;;;;;;6096280;23;20019;-84
2022/12/22 04:07:49;;;;;;;90.00;28.53;;;8.30;99.90;;;;;;6097402;23;20014;-85
2022/12/22 04:12:59;;;;;;;82.33;27.67;;;8.30;99.90;;;;;;6096889;23;20026;-85
2022/12/22 04:15:28;;;;;;;102.93;28.10;;;8.30;99.90;;;;;;6097000;23;20077;-84
2022/12/22 04:17:54;;;;;;;84.73;28.03;;;8.30;99.90;;;;;;6094540;23;20014;-84
2022/12/22 04:20:21;;;;;;;90.38;28.15;;;9.80;99.90;;;;;;6094832;23;20026;-85
2022/12/22 04:22:47;;;;;;;81.93;27.65;;;8.30;99.90;;;;;;6095042;23;20019;-85
2022/12/22 04:25:19;;;;;;;72.35;26.50;;;9.60;99.90;;;;;;6100278;23;20064;-85
2022/12/22 04:27:57;;;;;;;61.90;25.73;;;7.30;99.90;;;;;;6095598;23;20014;-85
2022/12/22 04:30:23;;;;;;;82.28;27.33;;;9.60;99.90;;;;;;6083380;23;20527;-85
2022/12/22 04:33:14;;;;;;;85.18;27.05;;;8.00;99.90;;;;;;6074904;23;20013;-85
2022/12/22 04:35:39;;;;;;;88.05;26.73;;;8.30;99.90;;;;;;6098657;23;20097;-85
2022/12/22 04:38:07;;;;;;;90.10;27.55;;;8.30;99.90;;;;;;6095391;23;20380;-84
2022/12/22 04:40:33;;;;;;;84.28;27.15;;;;;;;;;;6094276;23;20062;-85
2022/12/22 04:43:02;;;;;;;90.75;29.70;;;8.30;99.90;;;;;;6087458;23;20023;-85
2022/12/22 04:45:27;;;;;;;71.32;26.27;;;9.70;99.90;;;;;;6095720;23;20525;-85
2022/12/22 04:48:00;;;;;;;82.18;27.10;;;8.40;99.90;;;;;;6097029;23;20089;-84
2022/12/22 04:50:26;;;;;;;71.93;26.43;;;8.20;99.90;;;;;;6070847;23;20022;-85
2022/12/22 04:52:52;;;;;;;88.80;27.30;;;9.60;99.90;;;;;;6070572;23;20010;-85
2022/12/22 04:56:01;;;;;;;70.30;26.67;;;8.20;99.90;;;;;;6070771;23;20451;-85
2022/12/22 04:58:36;;;;;;;88.83;28.33;;;8.10;99.90;;;;;;6070383;23;20029;-85
2022/12/22 05:01:20;;;;;;;84.07;27.25;;;9.00;99.90;;;;;;6095397;23;20586;-85
2022/12/22 05:04:04;;;;;;;83.22;28.13;;;9.60;99.90;;;;;;6095482;23;20021;-85
2022/12/22 05:06:42;;;;;;;67.97;26.90;;;8.10;99.90;;;;;;6072607;23;20037;-84
2022/12/22 05:09:17;;;;;;;85.45;27.77;;;8.00;99.90;;;;;;6081597;23;20015;-86
2022/12/22 05:11:51;;;;;;;80.13;28.23;;;9.70;99.90;;;;;;6070363;23;20018;-85
2022/12/22 05:14:32;;;;;;;114.88;30.02;;;7.90;99.90;;;;;;6078643;23;20018;-85
2022/12/22 05:16:58;;;;;;;85.25;28.20;;;7.90;99.90;;;;;;6071081;23;20053;-85
2022/12/22 05:19:27;;;;;;;111.38;29.83;;;8.20;99.90;;;;;;6089581;23;20014;-85
2022/12/22 05:21:52;;;;;;;83.55;28.40;;;8.30;99.90;;;;;;6071379;23;20030;-85
2022/12/22 05:24:24;;;;;;;93.45;28.45;;;8.90;99.90;;;;;;6096340;23;20010;-85
2022/12/22 05:26:49;;;;;;;90.25;28.45;;;9.00;99.90;;;;;;6070400;23;20022;-85
2022/12/22 05:29:15;;;;;;;100.28;28.27;;;7.40;99.90;;;;;;6070247;23;20017;-85
2022/12/22 05:31:41;;;;;;;91.67;28.57;;;8.30;99.90;;;;;;6097517;23;20014;-85
2022/12/22 05:34:09;;;;;;;94.10;28.60;;;8.30;99.90;;;;;;6096796;23;20019;-85
2022/12/22 05:36:37;;;;;;;78.07;26.83;;;8.30;99.90;;;;;;6096353;23;20020;-85
2022/12/22 05:39:15;;;;;;;98.78;29.25;;;9.20;99.90;;;;;;6096458;23;20022;-84
2022/12/22 05:41:41;;;;;;;94.07;28.38;;;9.20;99.90;;;;;;6096921;23;20093;-84
2022/12/22 05:44:06;;;;;;;80.83;27.53;;;8.20;99.90;;;;;;6095918;23;20046;-85
2022/12/22 05:46:32;;;;;;;83.15;27.50;;;8.30;99.90;;;;;;6070126;23;20400;-85
2022/12/22 05:48:58;;;;;;;115.40;29.20;;;8.50;99.90;;;;;;6095372;23;20023;-85
2022/12/22 05:51:23;;;;;;;96.72;27.90;;;9.50;99.90;;;;;;6070584;23;20522;-85
2022/12/22 05:53:49;;;;;;;92.75;28.27;;;8.30;99.90;;;;;;6096432;23;20050;-85
2022/12/22 05:56:15;;;;;;;95.80;28.00;;;8.30;99.90;;;;;;6069739;23;20082;-83
2022/12/22 05:58:40;;;;;;;95.85;28.25;;;8.30;99.90;;;;;;6070974;23;20022;-83
2022/12/22 06:01:06;;;;;;;114.00;29.45;;;8.30;99.90;;;;;;6069538;23;20471;-84
2022/12/22 06:03:32;;;;;;;77.93;26.00;;;8.30;99.90;;;;;;6095474;23;20014;-83
2022/12/22 06:05:58;;;;;;;83.60;25.53;;;8.30;99.90;;;;;;6071584;23;20015;-83
2022/12/22 06:08:24;;;;;;;94.20;28.63;;;8.90;99.90;;;;;;6047890;23;20450;-84
2022/12/22 06:10:52;;;;;;;85.43;26.50;;;8.20;99.90;;;;;;6097568;23;20085;-84
2022/12/22 06:13:17;;;;;;;78.73;26.33;;;8.30;99.90;;;;;;6073656;23;20020;-85
2022/12/22 06:15:43;;;;;;;95.78;28.13;;;8.20;99.90;;;;;;6074900;23;20014;-85
2022/12/22 06:18:09;;;;;;;87.00;27.10;;;8.20;99.90;;;;;;6071544;23;20463;-84
2022/12/22 06:20:34;;;;;;;99.25;28.05;;;8.20;99.90;;;;;;6072781;23;20032;-84
2022/12/22 06:23:00;;;;;;;82.45;25.90;;;8.20;99.90;;;;;;6101800;23;20327;-84
2022/12/22 06:25:25;;;;;;;81.60;26.67;;;8.20;99.90;;;;;;6071723;23;20053;-85
2022/12/22 06:27:54;;;;;;;90.67;28.00;;;9.50;99.90;;;;;;6098168;23;20018;-86
2022/12/22 06:30:54;;;;;;;78.07;26.83;;;8.20;99.90;;;;;;6071943;23;20029;-86
2022/12/22 06:33:23;;;;;;;86.68;27.35;;;8.40;99.90;;;;;;6071325;23;20022;-87
2022/12/22 06:35:48;;;;;;;82.10;26.17;;;9.50;99.90;;;;;;6097996;23;20065;-87
2022/12/22 06:38:14;;;;;;;69.38;24.60;;;6.60;99.90;;;;;;6071808;23;20436;-84
2022/12/22 06:40:43;;;;;;;72.97;24.87;;;9.60;99.90;;;;;;6072279;23;20149;-85
2022/12/22 06:43:58;;;;;;;71.07;26.33;;;9.00;99.90;;;;;;6096600;23;20038;-86
2022/12/22 06:46:25;;;;;;;72.83;24.47;;;8.30;99.90;;;;;;6096927;23;20022;-87
2022/12/22 06:48:51;;;;;;;71.90;24.87;;;9.50;99.90;;;;;;6071614;23;20053;-87
2022/12/22 06:51:17;;;;;;;69.78;24.45;;;7.80;99.90;;;;;;6071733;23;20030;-87
2022/12/22 06:53:51;;;;;;;77.17;25.53;;;9.40;99.90;;;;;;6065231;23;20014;-87
2022/12/22 06:56:25;;;;;;;69.67;24.23;;;7.80;99.90;;;;;;6099950;23;20018;-87
2022/12/22 06:59:00;;;;;;;;;;;9.90;99.90;;;;;;6099231;23;20042;-87
2022/12/22 07:01:25;;;;;;;;;;;8.10;99.90;;;;;;6072354;23;19917;-87
2022/12/22 07:03:57;;;;;;;72.13;24.73;;;9.50;99.90;;;;;;6097906;23;19917;-86
2022/12/22 07:06:38;;;;;;;85.37;33.07;;;7.60;99.90;;;;;;6071430;23;20018;-86
2022/12/22 07:09:04;;;;;;;73.23;26.40;;;7.90;99.90;;;;;;6096621;23;20376;-86
2022/12/22 07:11:30;;;;;;;74.63;27.93;;;9.90;99.90;;;;;;6071456;23;20069;-86
2022/12/22 07:14:01;;;;;;;63.35;23.23;;;7.60;99.90;;;;;;6097409;23;20093;-86
2022/12/22 07:16:27;;;;;;;61.77;24.83;;;7.80;99.90;;;;;;6097159;23;20025;-86
2022/12/22 07:19:17;;;;;;;76.73;24.50;;;8.70;99.90;;;;;;6070960;23;20014;-86
2022/12/22 07:21:43;;;;;;;68.85;23.60;;;8.20;99.90;;;;;;6097564;23;20014;-86
2022/12/22 07:24:12;;;;;;;67.63;22.95;;;9.90;99.90;;;;;;6071839;23;20095;-86
2022/12/22 07:26:43;;;;;;;60.72;22.80;;;8.10;99.90;;;;;;6098218;23;20093;-86
2022/12/22 07:29:09;;;;;;;57.97;21.27;;;9.10;99.90;;;;;;6071259;23;20025;-86
2022/12/22 07:31:38;;;;;;;93.60;44.47;;;8.10;99.90;;;;;;6072039;23;20014;-86
2022/12/22 07:34:06;;;;;;;87.80;42.05;;;8.00;99.90;;;;;;6097777;23;20061;-86
2022/12/22 07:36:44;;;;;;;109.53;57.93;;;9.60;99.90;;;;;;6070991;23;20424;-85
2022/12/22 07:39:16;;;;;;;65.80;26.45;;;7.40;99.90;;;;;;6066110;23;20023;-83
2022/12/22 07:44:27;;;;;;;62.70;22.17;;;7.70;99.90;;;;;;6066918;23;20015;-84
2022/12/22 07:46:53;;;;;;;68.80;25.47;;;7.90;99.90;;;;;;6066796;23;20318;-84
2022/12/22 07:52:03;;;;;;;80.83;33.90;;;7.90;99.90;;;;;;6067064;23;20019;-84
2022/12/22 07:54:28;;;;;;;100.37;57.73;;;7.80;99.90;;;;;;6068508;23;20102;-84
2022/12/22 07:56:54;;;;;;;115.10;63.93;;;8.40;99.90;;;;;;6066551;23;20025;-85
2022/12/22 07:59:20;;;;;;;97.15;52.60;;;7.70;99.90;;;;;;6062181;23;20034;-85
2022/12/22 08:01:46;;;;;;;107.90;69.53;;;7.60;99.90;;;;;;6069931;23;20093;-85
2022/12/22 08:04:12;;;;;;;72.13;29.57;;;7.50;99.90;;;;;;6065842;23;20447;-84
2022/12/22 08:06:38;;;;;;;125.90;71.73;;;7.50;99.90;;;;;;6066142;23;20019;-84
2022/12/22 08:09:06;;;;;;;72.77;30.10;;;7.40;99.90;;;;;;6067279;23;20066;-84
2022/12/22 08:11:31;;;;;;;66.13;22.83;;;7.40;99.90;;;;;;6067264;23;20046;-85
2022/12/22 08:13:57;;;;;;;86.30;37.97;;;7.30;99.90;;;;;;6065671;23;20026;-85
2022/12/22 08:16:22;;;;;;;78.40;24.07;;;7.30;99.90;;;;;;6065470;23;20015;-84
2022/12/22 08:18:51;;;;;;;83.97;26.60;;;7.20;99.90;;;;;;6067012;23;20065;-84
2022/12/22 08:21:16;;;;;;;87.53;29.87;;;8.60;99.90;;;;;;6067667;23;20065;-84
2022/12/22 08:23:42;;;;;;;73.03;24.57;;;7.80;99.90;;;;;;6089706;23;20042;-85
2022/12/22 08:26:20;;;;;;;95.97;37.50;;;8.00;99.90;;;;;;6042377;23;20019;-83
2022/12/22 08:29:11;;;;;;;93.87;27.23;;;8.50;99.90;;;;;;6068920;23;20354;-83
2022/12/22 08:31:38;;;;;;;96.37;40.00;;;7.10;99.90;;;;;;6055204;23;20026;-83
2022/12/22 08:34:06;;;;;;;96.17;32.10;;;7.10;99.90;;;;;;6067569;23;20536;-84
2022/12/22 08:36:36;;;;;;;108.90;35.60;;;7.00;99.90;;;;;;6067898;23;20062;-83
2022/12/22 08:39:03;;;;;;;98.93;33.47;;;7.20;99.90;;;;;;6064337;23;20019;-83
2022/12/22 08:41:50;;;;;;;109.27;27.67;;;7.20;99.90;;;;;;6065495;23;20451;-84
2022/12/22 08:44:25;;;;;;;93.33;28.50;;;7.40;99.90;;;;;;6064905;23;20101;-84
2022/12/22 08:46:52;;;;;;;97.17;31.97;;;7.40;99.90;;;;;;6089596;23;20069;-84
2022/12/22 08:49:18;;;;;;;88.60;27.60;;;7.50;99.90;;;;;;6088347;23;20078;-83
2022/12/22 08:51:44;;;;;;;95.67;34.03;;;7.50;99.90;;;;;;6064716;23;20019;-83
2022/12/22 08:54:10;;;;;;;89.40;26.60;;;7.50;99.90;;;;;;6065643;23;20082;-83
2022/12/22 08:56:36;;;;;;;96.40;36.07;;;7.60;99.90;;;;;;6067934;23;20011;-83
2022/12/22 08:59:04;;;;;;;88.93;25.13;;;7.70;99.90;;;;;;6067532;23;20015;-83
2022/12/22 09:01:31;;;;;;;112.47;32.33;;;8.40;99.90;;;;;;6089845;23;20027;-84
2022/12/22 09:03:56;;;;;;;87.23;26.10;;;7.60;99.90;;;;;;6089618;23;20018;-84
2022/12/22 09:06:35;;;;;;;119.13;35.77;;;7.60;99.90;;;;;;6065331;23;20026;-84
2022/12/22 09:09:11;;;;;;;89.67;28.17;;;9.10;99.90;;;;;;6067887;23;20015;-83
2022/12/22 09:11:50;;;;;;;72.30;22.03;;;8.20;99.90;;;;;;6067555;23;20011;-83
2022/12/22 09:14:16;;;;;;;59.33;17.93;;;7.40;99.90;;;;;;6065046;23;20023;-84
2022/12/22 09:16:42;;;;;;;68.13;25.90;;;7.10;99.90;;;;;;6062190;23;20019;-84
2022/12/22 09:19:21;;;;;;;67.33;22.67;;;7.30;99.90;;;;;;6067611;23;20083;-83
2022/12/22 09:21:56;;;;;;;64.20;25.47;;;7.30;99.90;;;;;;6065323;23;20019;-83
2022/12/22 09:24:25;;;;;;;82.00;29.37;;;8.20;99.90;;;;;;6067277;23;20026;-83
2022/12/22 09:26:50;;;;;;;60.40;20.90;;;8.80;99.90;;;;;;6065677;23;20023;-83
2022/12/22 09:29:17;;;;;;;74.37;29.93;;;7.90;99.90;;;;;;6065201;23;20038;-83
2022/12/22 09:31:58;;;;;;;71.63;34.83;;;7.60;99.90;;;;;;6065070;23;20452;-82
2022/12/22 09:34:49;;;;;;;50.30;18.63;;;6.30;99.90;;;;;;6066719;23;20022;-83
2022/12/22 09:37:24;;;;;;;51.47;19.93;;;7.20;99.90;;;;;;6065860;23;20018;-84
2022/12/22 09:39:58;;;;;;;57.73;25.50;;;7.50;99.90;;;;;;6011728;23;20031;-85
2022/12/22 09:42:24;;;;;;;62.90;32.50;;;8.70;99.90;;;;;;6012108;23;20032;-85
2022/12/22 09:45:02;;;;;;;49.63;21.23;;;8.10;99.90;;;;;;6038736;23;20016;-85
2022/12/22 09:47:52;;;;;;;50.37;23.07;;;6.80;99.90;;;;;;6039313;23;20308;-84
2022/12/22 09:50:23;;;;;;;59.37;25.03;;;6.30;99.90;;;;;;5975762;23;20011;-85
2022/12/22 09:53:02;;;;;;;51.50;22.83;;;6.00;99.90;;;;;;6042690;23;20016;-86
2022/12/22 09:55:50;;;;;;;49.67;20.23;;;7.70;99.90;;;;;;6039791;23;20096;-83
2022/12/22 09:58:25;;;;;;;58.60;26.10;;;6.70;99.90;;;;;;6037198;23;20019;-83
2022/12/22 10:01:29;;;;;;;48.67;17.43;;;6.60;99.90;;;;;;6018506;23;20019;-84
2022/12/22 10:04:17;;;;;;;54.00;21.97;;;6.60;99.90;;;;;;6036689;23;20019;-84
2022/12/22 10:06:56;;;;;;;51.67;19.57;;;6.60;99.90;;;;;;6040962;23;20015;-85
2022/12/22 10:09:25;;;;;;;47.10;17.87;;;6.60;99.90;;;;;;6040341;23;20016;-84
2022/12/22 10:11:57;;;;;;;43.57;15.50;;;6.60;99.90;;;;;;6042510;23;20015;-84
2022/12/22 10:14:35;;;;;;;47.33;16.37;;;6.70;99.90;;;;;;6040237;23;20054;-84
2022/12/22 10:17:17;;;;;;;47.67;15.50;;;6.60;99.90;;;;;;6039860;23;20341;-84
2022/12/22 10:19:44;;;;;;;46.30;15.00;;;6.60;99.90;;;;;;6009901;23;20019;-84
2022/12/22 10:22:25;;;;;;;40.97;13.33;;;6.60;99.90;;;;;;6010744;23;20027;-84
2022/12/22 10:24:51;;;;;;;43.33;13.37;;;7.70;99.90;;;;;;6039079;23;20044;-85
2022/12/22 10:27:19;;;;;;;44.60;13.97;;;6.60;99.90;;;;;;6013443;23;20023;-84
2022/12/22 10:29:47;;;;;;;45.30;13.23;;;7.30;99.90;;;;;;6038454;23;20047;-84
2022/12/22 10:32:19;;;;;;;44.17;13.50;;;8.20;99.90;;;;;;6038490;23;20094;-84
2022/12/22 10:35:02;;;;;;;41.90;12.17;;;6.80;99.90;;;;;;6014380;23;20022;-84
2022/12/22 10:37:36;;;;;;;40.03;11.77;;;6.80;99.90;;;;;;6039809;23;20043;-84
2022/12/22 10:40:17;;;;;;;35.70;12.00;;;6.80;99.90;;;;;;6066824;23;20094;-84
2022/12/22 10:42:54;;;;;;;33.77;11.73;;;6.80;99.90;;;;;;6043289;23;20030;-84
2022/12/22 10:45:23;;;;;;;30.53;10.53;;;6.80;99.90;;;;;;6066085;23;20348;-84
2022/12/22 10:47:52;;;;;;;35.23;11.47;;;7.90;99.90;;;;;;6067024;23;20375;-84
2022/12/22 10:50:19;;;;;;;31.37;10.67;;;6.90;99.90;;;;;;6068411;23;20015;-84
2022/12/22 10:52:53;;;;;;;29.83;11.13;;;6.90;99.90;;;;;;6043001;23;20059;-82
2022/12/22 10:55:25;;;;;;;25.23;9.70;;;7.00;99.90;;;;;;6068396;23;20021;-82
2022/12/22 10:58:04;;;;;;;27.90;10.53;;;6.90;99.90;;;;;;6068778;23;20018;-83
2022/12/22 11:00:31;;;;;;;27.63;10.63;;;7.70;99.90;;;;;;6041999;23;20452;-82
2022/12/22 11:02:59;;;;;;;30.30;13.40;;;6.90;99.90;;;;;;6068640;23;20019;-82
2022/12/22 11:05:25;;;;;;;34.93;14.17;;;7.10;99.90;;;;;;6067991;23;20328;-83
2022/12/22 11:07:51;;;;;;;31.13;11.75;;;7.00;99.90;;;;;;6066418;23;20093;-83
2022/12/22 11:10:31;;;;;;;28.70;10.27;;;7.10;99.90;;;;;;6042447;23;20026;-83
2022/12/22 11:13:31;;;;;;;29.30;11.93;;;7.30;99.90;;;;;;6067862;23;20026;-83
2022/12/22 11:16:20;;;;;;;28.97;10.50;;;7.40;99.90;;;;;;6066594;23;20079;-83
2022/12/22 11:18:53;;;;;;;24.70;10.13;;;7.50;99.90;;;;;;6042517;23;20051;-83
2022/12/22 11:21:27;;;;;;;27.67;9.98;;;7.60;99.90;;;;;;6067540;23;20023;-83
2022/12/22 11:24:03;;;;;;;24.90;9.88;;;7.60;99.90;;;;;;6066519;23;20023;-83
2022/12/22 11:26:35;;;;;;;24.03;8.70;;;7.60;99.90;;;;;;6041851;23;20023;-83
2022/12/22 11:29:12;;;;;;;21.07;9.73;;;7.40;99.90;;;;;;6042556;23;20149;-83
2022/12/22 11:32:03;;;;;;;24.13;10.07;;;7.50;99.90;;;;;;6068193;23;20471;-84
2022/12/22 11:34:59;;;;;;;21.60;9.33;;;7.40;99.90;;;;;;6042190;23;20079;-82
2022/12/22 11:37:49;;;;;;;24.10;9.50;;;7.30;99.90;;;;;;6063680;23;20030;-83
2022/12/22 11:40:41;;;;;;;18.97;8.83;;;7.20;99.90;;;;;;6052654;23;20026;-83
2022/12/22 11:43:20;;;;;;;17.37;8.10;;;6.50;99.90;;;;;;6043239;23;20022;-83
2022/12/22 11:46:23;;;;;;;18.17;8.43;;;7.10;99.90;;;;;;6043114;23;20011;-84
2022/12/22 11:48:54;;;;;;;19.30;8.57;;;7.00;99.90;;;;;;6067997;23;20102;-83
2022/12/22 11:51:49;;;;;;;20.23;8.40;;;7.80;99.90;;;;;;6069372;23;20037;-83
2022/12/22 11:54:38;;;;;;;;;;;6.90;99.90;;;;;;6069889;23;20030;-83
2022/12/22 11:57:38;;;;;;;20.37;9.03;;;6.90;99.90;;;;;;6066796;23;20390;-84
2022/12/22 12:00:17;;;;;;;18.10;8.53;;;7.00;99.90;;;;;;6015980;23;20046;-84
2022/12/22 12:03:21;;;;;;;23.33;9.07;;;7.20;99.90;;;;;;6064461;23;20019;-84
2022/12/22 12:06:11;;;;;;;20.10;8.88;;;7.20;99.90;;;;;;6042651;23;20030;-83
2022/12/22 12:08:57;;;;;;;23.23;9.27;;;7.30;99.90;;;;;;6040281;23;20022;-83
2022/12/22 12:11:38;;;;;;;25.83;9.87;;;7.40;99.90;;;;;;6040969;23;20373;-85
2022/12/22 12:14:03;;;;;;;29.27;16.23;;;7.40;99.90;;;;;;6066583;23;20018;-81
2022/12/22 12:16:45;;;;;;;31.90;15.83;;;8.80;99.90;;;;;;6065840;23;20050;-81
2022/12/22 12:19:44;;;;;;;44.10;28.90;;;7.40;99.90;;;;;;6040274;23;20019;-83
2022/12/22 12:22:32;;;;;;;36.47;20.10;;;7.50;99.90;;;;;;6063653;23;20019;-83
2022/12/22 12:25:20;;;;;;;22.80;10.67;;;7.50;99.90;;;;;;6039709;23;20018;-83
2022/12/22 12:28:13;;;;;;;24.60;9.70;;;7.60;99.90;;;;;;6067066;23;20018;-83
2022/12/22 12:30:59;;;;;;;27.67;12.00;;;7.70;99.90;;;;;;6041976;23;20061;-83
2022/12/22 12:33:35;;;;;;;26.83;10.27;;;7.70;99.90;;;;;;6064990;23;20015;-83
2022/12/22 12:36:01;;;;;;;23.27;11.47;;;7.80;99.90;;;;;;6066572;23;20018;-82
2022/12/22 12:39:05;;;;;;;25.57;9.27;;;7.90;99.90;;;;;;6037298;23;20070;-83
2022/12/22 12:42:06;;;;;;;21.77;8.70;;;8.00;99.90;;;;;;6067582;23;20030;-82
2022/12/22 12:44:34;;;;;;;28.77;16.43;;;8.10;99.90;;;;;;6066119;23;20082;-82
2022/12/22 12:47:24;;;;;;;30.20;10.40;;;8.20;99.90;;;;;;6066180;23;20022;-82
2022/12/22 12:50:16;;;;;;;23.47;8.97;;;8.30;99.90;;;;;;6042011;23;20089;-82
2022/12/22 12:52:47;;;;;;;27.10;12.60;;;8.50;99.90;;;;;;6042013;23;20065;-83
2022/12/22 12:55:29;;;;;;;23.27;7.60;;;8.50;99.90;;;;;;6067491;23;20018;-82
2022/12/22 12:58:00;;;;;;;23.47;9.57;;;8.60;99.90;;;;;;6041286;23;20022;-82
2022/12/22 13:00:32;;;;;;;25.00;11.47;;;9.10;99.90;;;;;;6063249;23;20069;-82
2022/12/22 13:03:02;;;;;;;18.17;8.77;;;8.70;99.90;;;;;;6042010;23;20022;-84
2022/12/22 13:05:57;;;;;;;26.53;13.77;;;8.70;99.90;;;;;;6066521;23;20431;-83
2022/12/22 13:08:45;;;;;;;21.57;7.97;;;8.80;99.90;;;;;;6068925;23;20082;-84
2022/12/22 13:11:14;;;;;;;20.67;8.30;;;8.80;99.90;;;;;;6091798;23;20071;-83
2022/12/22 13:13:40;;;;;;;22.87;10.27;;;8.90;99.90;;;;;;6068370;23;20061;-83
2022/12/22 13:19:36;;;;;;;19.93;8.30;;;8.90;99.90;;;;;;6068145;23;20460;-83
2022/12/22 13:22:02;;;;;;;18.85;7.70;;;10.50;99.90;;;;;;6067616;23;20373;-83
2022/12/22 13:24:31;;;;;;;20.40;7.97;;;10.20;99.90;;;;;;6067086;23;20026;-83
2022/12/22 13:27:16;;;;;;;21.03;7.83;;;9.10;99.90;;;;;;6042030;23;20466;-83
2022/12/22 13:29:51;;;;;;;20.97;7.93;;;9.10;99.90;;;;;;6066168;23;20015;-84
2022/12/22 13:32:48;;;;;;;21.93;8.07;;;10.20;99.90;;;;;;6066270;23;20098;-83
2022/12/22 13:35:17;;;;;;;21.00;7.60;;;9.40;99.90;;;;;;6065062;23;20026;-83
2022/12/22 13:37:58;;;;;;;18.33;7.80;;;9.10;99.90;;;;;;6041782;23;20030;-84
2022/12/22 13:40:30;;;;;;;17.90;7.20;;;10.40;99.90;;;;;;6041531;23;20422;-82
2022/12/22 13:43:01;;;;;;;17.60;6.63;;;9.10;99.90;;;;;;6067396;23;20042;-83
2022/12/22 13:45:47;;;;;;;18.33;7.23;;;10.40;99.90;;;;;;6041957;23;20011;-83
2022/12/22 13:48:32;;;;;;;18.30;6.32;;;9.10;99.90;;;;;;6064742;23;20023;-83
2022/12/22 13:51:01;;;;;;;17.65;6.88;;;9.20;99.90;;;;;;6041915;23;20050;-83
2022/12/22 13:53:31;;;;;;;14.80;6.32;;;10.50;99.90;;;;;;6067354;23;20444;-82
2022/12/22 13:56:21;;;;;;;17.75;6.50;;;9.20;99.90;;;;;;6041354;23;20445;-83
2022/12/22 13:58:52;;;;;;;18.42;6.60;;;9.20;99.90;;;;;;6067053;23;20026;-82
2022/12/22 14:01:19;;;;;;;29.85;7.57;;;9.20;99.90;;;;;;6066544;23;20331;-82
2022/12/22 14:03:48;;;;;;;14.82;5.82;;;9.00;99.90;;;;;;6063108;23;20022;-81
2022/12/22 14:06:27;;;;;;;15.45;5.13;;;9.00;99.90;;;;;;6040663;23;20031;-82
2022/12/22 14:09:07;;;;;;;13.98;4.97;;;8.90;99.90;;;;;;6065194;23;20030;-81
2022/12/22 14:11:33;;;;;;;17.10;5.47;;;8.90;99.90;;;;;;6065428;23;20112;-81
2022/12/22 14:13:58;;;;;;;18.47;5.77;;;8.80;99.90;;;;;;6065680;23;20482;-81
2022/12/22 14:16:24;;;;;;;14.17;5.27;;;8.70;99.90;;;;;;6064992;23;20017;-82
2022/12/22 14:18:51;;;;;;;14.73;5.33;;;8.70;99.90;;;;;;6043630;23;20099;-81
2022/12/22 14:21:17;;;;;;;19.77;8.03;;;8.50;99.90;;;;;;6046488;23;20014;-82
2022/12/22 14:23:45;;;;;;;16.00;6.57;;;8.50;99.90;;;;;;6066232;23;20339;-82
2022/12/22 14:26:25;;;;;;;16.88;6.03;;;8.40;99.90;;;;;;6039999;23;20090;-82
2022/12/22 14:28:55;;;;;;;14.88;7.05;;;9.50;99.90;;;;;;6042396;23;20023;-82
2022/12/22 14:31:26;;;;;;;17.45;6.63;;;9.50;99.90;;;;;;6042206;23;20018;-81
2022/12/22 14:44:37;;;;;;;17.50;6.07;;;8.10;99.90;;;;;;6101410;23;20139;-81
2022/12/22 15:06:27;;;;;;;19.30;6.90;;;7.50;99.90;;;;;;6121503;23;20729;-82
2022/12/22 15:09:10;;;;;;;33.80;21.23;;;7.80;99.90;;;;;;6077243;23;20033;-82
2022/12/22 15:12:00;;;;;;;16.20;7.97;;;7.90;99.90;;;;;;6071870;23;20065;-82
2022/12/22 15:14:58;;;;;;;20.70;9.17;;;7.80;99.90;;;;;;6069688;23;20015;-82
2022/12/22 15:17:28;;;;;;;17.83;6.95;;;7.80;99.90;;;;;;6069689;23;20026;-82
2022/12/22 15:20:12;;;;;;;13.75;6.43;;;9.30;99.90;;;;;;6068603;23;20050;-82
2022/12/22 15:22:41;;;;;;;15.10;6.37;;;7.70;99.90;;;;;;6095336;23;20463;-82
2022/12/22 15:25:34;;;;;;;15.70;7.80;;;7.70;99.90;;;;;;6095937;23;20014;-82
2022/12/22 15:28:18;;;;;;;20.90;7.30;;;7.60;99.90;;;;;;6068647;23;20473;-83
2022/12/22 15:30:53;;;;;;;17.25;6.93;;;7.50;99.90;;;;;;6070703;23;20399;-82
2022/12/22 15:33:19;;;;;;;17.40;7.60;;;7.30;99.90;;;;;;6094857;23;20456;-82
2022/12/22 15:35:54;;;;;;;16.40;7.53;;;7.50;99.90;;;;;;6069671;23;20022;-82
2022/12/22 15:38:25;;;;;;;19.67;8.50;;;7.60;99.90;;;;;;6089855;23;20074;-82
2022/12/22 15:43:28;;;;;;;17.13;8.20;;;7.40;99.90;;;;;;6093866;23;20031;-82
2022/12/22 15:45:54;;;;;;;20.97;9.00;;;8.60;99.90;;;;;;6069743;23;20062;-82
2022/12/22 15:48:29;;;;;;;17.43;8.37;;;7.90;99.90;;;;;;6094774;23;20690;-82
2022/12/22 15:50:55;;;;;;;20.17;8.37;;;8.70;99.90;;;;;;6069445;23;20019;-82
2022/12/22 15:53:27;;;;;;;19.05;8.63;;;8.70;99.90;;;;;;6069758;23;20018;-82
2022/12/22 15:56:11;;;;;;;22.87;10.73;;;9.20;99.90;;;;;;6095279;23;20021;-82
2022/12/22 15:58:36;;;;;;;21.47;8.93;;;7.50;99.90;;;;;;6070193;23;20042;-84
2022/12/22 16:01:14;;;;;;;21.20;10.53;;;8.80;99.90;;;;;;6095168;23;20330;-83
2022/12/22 16:04:08;;;;;;;22.13;10.50;;;8.00;99.90;;;;;;6074419;23;20055;-84
2022/12/22 16:07:26;;;;;;;20.58;9.82;;;7.60;99.90;;;;;;6123625;23;20465;-84
2022/12/22 16:10:48;;;;;;;22.27;10.53;;;7.50;99.90;;;;;;6124851;23;20014;-84
2022/12/22 16:13:15;;;;;;;23.80;11.17;;;7.60;99.90;;;;;;6098636;23;20113;-84
2022/12/22 16:15:47;;;;;;;19.50;9.73;;;7.00;99.90;;;;;;6099928;23;20097;-84
2022/12/22 16:18:34;;;;;;;19.10;10.25;;;6.80;99.90;;;;;;6098028;23;20073;-84
2022/12/22 16:21:29;;;;;;;23.40;10.38;;;7.40;99.90;;;;;;6098168;23;20028;-84
2022/12/22 16:24:46;;;;;;;23.13;11.00;;;7.60;99.90;;;;;;6100679;23;20056;-85
2022/12/22 16:27:13;;;;;;;20.77;10.80;;;7.80;99.90;;;;;;6098991;23;20152;-83
2022/12/22 17:02:17;;;;;;;30.10;16.97;;;7.40;99.90;;;;;;6070250;23;20038;-85
2022/12/22 17:05:10;;;;;;;31.33;17.90;;;6.50;99.90;;;;;;6067332;23;20030;-86
2022/12/22 17:10:59;;;;;;;33.13;16.37;;;6.80;99.90;;;;;;6273946;22;20765;-85
2022/12/22 17:14:06;;;;;;;31.63;15.60;;;7.60;99.90;;;;;;6232342;23;20023;-85
2022/12/22 17:16:32;;;;;;;31.13;15.63;;;7.70;99.90;;;;;;6227011;22;20023;-86
2022/12/22 17:19:03;;;;;;;29.23;15.70;;;6.70;99.90;;;;;;6221478;23;20020;-86
2022/12/22 17:21:33;;;;;;;29.53;15.17;;;8.80;99.90;;;;;;6221620;22;20075;-86
2022/12/22 17:24:08;;;;;;;33.57;16.13;;;7.30;99.90;;;;;;6194897;22;20040;-85
2022/12/22 17:26:59;;;;;;;31.40;15.90;;;7.30;99.90;;;;;;6195095;23;20008;-85
2022/12/22 17:36:03;;;;;;;33.57;16.00;;;7.20;99.90;;;;;;6211644;22;20352;-85
2022/12/22 17:39:09;;;;;;;34.27;15.93;;;7.10;99.90;;;;;;6223519;23;20031;-85
2022/12/22 17:41:50;;;;;;;;;;;;;;;;;;;;;
2022/12/22 17:47:36;;;;;;;31.07;15.63;;;7.10;99.90;;;;;;6251312;23;20039;-86
2022/12/22 17:50:32;;;;;;;30.43;15.73;;;7.10;99.90;;;;;;6227588;23;20078;-85
2022/12/22 17:53:29;;;;;;;32.57;17.47;;;7.00;99.90;;;;;;6159928;23;20310;-85
2022/12/22 17:56:06;;;;;;;33.17;17.37;;;6.30;99.90;;;;;;6247261;23;20083;-85
2022/12/22 17:59:00;;;;;;;33.63;17.53;;;6.10;99.90;;;;;;6221200;23;20020;-86
2022/12/22 18:01:37;;;;;;;34.10;17.45;;;6.50;99.90;;;;;;6219049;23;20016;-85
2022/12/22 18:04:18;;;;;;;32.33;16.90;;;6.90;99.90;;;;;;6219845;23;20012;-84
2022/12/22 18:17:05;;;;;;;37.33;16.87;;;6.80;99.90;;;;;;6128733;23;20104;-84
2022/12/22 18:19:46;;;;;;;35.60;17.23;;;5.70;99.90;;;;;;6153162;23;20025;-85
2022/12/22 18:22:28;;;;;;;35.67;16.53;;;8.10;99.90;;;;;;6152273;23;20029;-85
2022/12/22 18:24:55;;;;;;;34.45;16.30;;;6.10;99.90;;;;;;6128807;23;20134;-85
2022/12/22 18:30:59;;;;;;;33.87;17.17;;;6.80;99.90;;;;;;6245423;22;20322;-86
2022/12/22 18:45:51;;;;;;;;;;;;;;;;;;;;;
2022/12/22 18:48:39;;;;;;;41.70;19.30;;;6.30;99.90;;;;;;6122704;23;20021;-86
2022/12/22 18:51:37;;;;;;;44.80;21.07;;;6.40;99.90;;;;;;6123108;23;20498;-86